sensor_id;sensor_type;location;lat;lon;timestamp;P1;durP1;ratioP1;P2;durP2;ratioP2
22963;SDS011;11648;49.306;6.934;2022-07-30T00:01:14;5.03;;;3.50;;
22963;SDS011;11648;49.306;6.934;2022-07-30T00:03:41;6.13;;;3.33;;
22963;SDS011;11648;49.306;6.934;2022-07-30T00:06:07;6.13;;;3.93;;
22963;SDS011;11648;49.306;6.934;2022-07-30T00:08:34;6.13;;;3.43;;
22963;SDS011;11648;49.306;6.934;2022-07-30T00:11:00;5.93;;;3.53;;
22963;SDS011;11648;49.306;6.934;2022-07-30T00:13:27;5.33;;;3.30;;
22963;SDS011;11648;49.306;6.934;2022-07-30T00:15:54;5.00;;;3.37;;
22963;SDS011;11648;49.306;6.934;2022-07-30T00:18:21;4.70;;;3.27;;
22963;SDS011;11648;49.306;6.934;2022-07-30T00:20:48;4.93;;;3.37;;
22963;SDS011;11648;49.306;6.934;2022-07-30T00:23:15;6.10;;;3.67;;
22963;SDS011;11648;49.306;6.934;2022-07-30T00:25:42;5.07;;;3.50;;
22963;SDS011;11648;49.306;6.934;2022-07-30T00:28:09;6.70;;;3.80;;
22963;SDS011;11648;49.306;6.934;2022-07-30T00:30:36;6.07;;;3.80;;
22963;SDS011;11648;49.306;6.934;2022-07-30T00:33:04;6.30;;;4.00;;
22963;SDS011;11648;49.306;6.934;2022-07-30T00:35:33;5.90;;;4.07;;
22963;SDS011;11648;49.306;6.934;2022-07-30T00:38:00;6.13;;;4.13;;
22963;SDS011;11648;49.306;6.934;2022-07-30T00:40:27;5.17;;;3.60;;
22963;SDS011;11648;49.306;6.934;2022-07-30T00:42:54;10.10;;;4.47;;
22963;SDS011;11648;49.306;6.934;2022-07-30T00:45:21;5.53;;;3.80;;
22963;SDS011;11648;49.306;6.934;2022-07-30T00:47:47;5.23;;;4.27;;
22963;SDS011;11648;49.306;6.934;2022-07-30T00:50:14;6.50;;;3.60;;
22963;SDS011;11648;49.306;6.934;2022-07-30T00:52:42;6.63;;;3.77;;
22963;SDS011;11648;49.306;6.934;2022-07-30T00:55:09;5.80;;;4.03;;
22963;SDS011;11648;49.306;6.934;2022-07-30T00:57:38;4.27;;;3.50;;
22963;SDS011;11648;49.306;6.934;2022-07-30T01:00:07;5.87;;;3.60;;
22963;SDS011;11648;49.306;6.934;2022-07-30T01:02:36;5.10;;;3.80;;
22963;SDS011;11648;49.306;6.934;2022-07-30T01:05:03;4.90;;;3.40;;
22963;SDS011;11648;49.306;6.934;2022-07-30T01:07:30;4.63;;;3.50;;
22963;SDS011;11648;49.306;6.934;2022-07-30T01:09:57;6.97;;;3.47;;
22963;SDS011;11648;49.306;6.934;2022-07-30T01:12:24;4.53;;;3.50;;
22963;SDS011;11648;49.306;6.934;2022-07-30T01:14:52;5.13;;;3.63;;
22963;SDS011;11648;49.306;6.934;2022-07-30T01:17:22;4.50;;;3.33;;
22963;SDS011;11648;49.306;6.934;2022-07-30T01:19:49;5.47;;;3.43;;
22963;SDS011;11648;49.306;6.934;2022-07-30T01:27:30;6.07;;;3.90;;
22963;SDS011;11648;49.306;6.934;2022-07-30T01:30:01;6.77;;;4.10;;
22963;SDS011;11648;49.306;6.934;2022-07-30T01:32:32;5.20;;;3.70;;
22963;SDS011;11648;49.306;6.934;2022-07-30T01:35:01;5.80;;;4.30;;
22963;SDS011;11648;49.306;6.934;2022-07-30T01:37:30;7.33;;;3.90;;
22963;SDS011;11648;49.306;6.934;2022-07-30T01:39:58;5.03;;;3.97;;
22963;SDS011;11648;49.306;6.934;2022-07-30T01:42:25;7.27;;;4.37;;
22963;SDS011;11648;49.306;6.934;2022-07-30T01:44:53;6.00;;;4.23;;
22963;SDS011;11648;49.306;6.934;2022-07-30T01:47:22;5.87;;;4.33;;
22963;SDS011;11648;49.306;6.934;2022-07-30T01:49:50;5.20;;;3.93;;
22963;SDS011;11648;49.306;6.934;2022-07-30T01:52:20;4.97;;;3.60;;
22963;SDS011;11648;49.306;6.934;2022-07-30T01:54:49;4.60;;;3.40;;
22963;SDS011;11648;49.306;6.934;2022-07-30T01:57:18;5.43;;;3.70;;
22963;SDS011;11648;49.306;6.934;2022-07-30T01:59:46;4.90;;;3.70;;
22963;SDS011;11648;49.306;6.934;2022-07-30T02:02:17;3.93;;;3.20;;
22963;SDS011;11648;49.306;6.934;2022-07-30T02:04:44;5.17;;;3.43;;
22963;SDS011;11648;49.306;6.934;2022-07-30T02:07:17;5.17;;;3.73;;
22963;SDS011;11648;49.306;6.934;2022-07-30T02:09:57;5.63;;;3.73;;
22963;SDS011;11648;49.306;6.934;2022-07-30T02:12:33;8.40;;;3.80;;
22963;SDS011;11648;49.306;6.934;2022-07-30T02:15:14;5.40;;;3.60;;
22963;SDS011;11648;49.306;6.934;2022-07-30T02:17:51;5.90;;;4.10;;
22963;SDS011;11648;49.306;6.934;2022-07-30T02:20:26;5.80;;;4.00;;
22963;SDS011;11648;49.306;6.934;2022-07-30T02:23:04;9.20;;;4.10;;
22963;SDS011;11648;49.306;6.934;2022-07-30T02:25:34;5.90;;;4.13;;
22963;SDS011;11648;49.306;6.934;2022-07-30T02:28:05;7.63;;;4.03;;
22963;SDS011;11648;49.306;6.934;2022-07-30T02:30:35;4.93;;;3.37;;
22963;SDS011;11648;49.306;6.934;2022-07-30T02:33:06;5.97;;;3.70;;
22963;SDS011;11648;49.306;6.934;2022-07-30T02:35:38;4.87;;;3.40;;
22963;SDS011;11648;49.306;6.934;2022-07-30T02:38:06;4.10;;;3.50;;
22963;SDS011;11648;49.306;6.934;2022-07-30T02:40:38;4.20;;;3.20;;
22963;SDS011;11648;49.306;6.934;2022-07-30T02:43:07;4.30;;;3.70;;
22963;SDS011;11648;49.306;6.934;2022-07-30T02:45:35;4.33;;;3.47;;
22963;SDS011;11648;49.306;6.934;2022-07-30T02:48:03;6.53;;;3.87;;
22963;SDS011;11648;49.306;6.934;2022-07-30T02:50:33;5.90;;;3.47;;
22963;SDS011;11648;49.306;6.934;2022-07-30T02:53:00;4.40;;;3.43;;
22963;SDS011;11648;49.306;6.934;2022-07-30T02:55:31;4.57;;;3.40;;
22963;SDS011;11648;49.306;6.934;2022-07-30T02:58:01;5.13;;;3.60;;
22963;SDS011;11648;49.306;6.934;2022-07-30T03:00:31;4.43;;;3.37;;
22963;SDS011;11648;49.306;6.934;2022-07-30T03:03:00;5.13;;;3.83;;
22963;SDS011;11648;49.306;6.934;2022-07-30T03:05:29;6.60;;;3.90;;
22963;SDS011;11648;49.306;6.934;2022-07-30T03:07:58;5.40;;;3.73;;
22963;SDS011;11648;49.306;6.934;2022-07-30T03:10:26;4.87;;;3.60;;
22963;SDS011;11648;49.306;6.934;2022-07-30T03:12:55;5.67;;;3.80;;
22963;SDS011;11648;49.306;6.934;2022-07-30T03:15:23;4.93;;;3.60;;
22963;SDS011;11648;49.306;6.934;2022-07-30T03:17:52;4.43;;;3.17;;
22963;SDS011;11648;49.306;6.934;2022-07-30T03:20:24;4.10;;;3.37;;
22963;SDS011;11648;49.306;6.934;2022-07-30T03:22:53;5.73;;;3.77;;
22963;SDS011;11648;49.306;6.934;2022-07-30T03:25:22;5.17;;;3.40;;
22963;SDS011;11648;49.306;6.934;2022-07-30T03:27:53;5.77;;;3.77;;
22963;SDS011;11648;49.306;6.934;2022-07-30T03:30:21;4.20;;;3.43;;
22963;SDS011;11648;49.306;6.934;2022-07-30T03:32:51;4.33;;;3.83;;
22963;SDS011;11648;49.306;6.934;2022-07-30T03:35:19;4.53;;;3.80;;
22963;SDS011;11648;49.306;6.934;2022-07-30T03:37:57;6.07;;;3.43;;
22963;SDS011;11648;49.306;6.934;2022-07-30T03:40:25;4.83;;;3.80;;
22963;SDS011;11648;49.306;6.934;2022-07-30T03:42:52;4.90;;;3.80;;
22963;SDS011;11648;49.306;6.934;2022-07-30T03:45:22;5.40;;;3.60;;
22963;SDS011;11648;49.306;6.934;2022-07-30T03:47:53;5.70;;;4.20;;
22963;SDS011;11648;49.306;6.934;2022-07-30T03:50:21;4.70;;;4.00;;
22963;SDS011;11648;49.306;6.934;2022-07-30T03:52:49;6.07;;;3.90;;
22963;SDS011;11648;49.306;6.934;2022-07-30T03:55:16;5.50;;;3.80;;
22963;SDS011;11648;49.306;6.934;2022-07-30T03:57:49;6.13;;;3.83;;
22963;SDS011;11648;49.306;6.934;2022-07-30T04:00:19;6.40;;;4.07;;
22963;SDS011;11648;49.306;6.934;2022-07-30T04:02:50;6.00;;;4.07;;
22963;SDS011;11648;49.306;6.934;2022-07-30T04:05:25;5.73;;;4.10;;
22963;SDS011;11648;49.306;6.934;2022-07-30T04:08:03;5.93;;;4.27;;
22963;SDS011;11648;49.306;6.934;2022-07-30T04:10:31;6.10;;;4.13;;
22963;SDS011;11648;49.306;6.934;2022-07-30T04:12:58;4.90;;;4.30;;
22963;SDS011;11648;49.306;6.934;2022-07-30T04:15:27;4.77;;;3.90;;
22963;SDS011;11648;49.306;6.934;2022-07-30T04:18:14;5.63;;;4.03;;
22963;SDS011;11648;49.306;6.934;2022-07-30T04:20:45;5.10;;;4.10;;
22963;SDS011;11648;49.306;6.934;2022-07-30T04:23:13;6.93;;;4.23;;
22963;SDS011;11648;49.306;6.934;2022-07-30T04:25:42;5.57;;;4.10;;
22963;SDS011;11648;49.306;6.934;2022-07-30T04:28:09;5.20;;;3.90;;
22963;SDS011;11648;49.306;6.934;2022-07-30T04:30:37;7.53;;;3.90;;
22963;SDS011;11648;49.306;6.934;2022-07-30T04:33:04;6.33;;;3.83;;
22963;SDS011;11648;49.306;6.934;2022-07-30T04:35:39;6.47;;;4.10;;
22963;SDS011;11648;49.306;6.934;2022-07-30T04:38:37;6.63;;;4.63;;
22963;SDS011;11648;49.306;6.934;2022-07-30T04:41:04;7.07;;;4.10;;
22963;SDS011;11648;49.306;6.934;2022-07-30T04:43:49;5.20;;;4.00;;
22963;SDS011;11648;49.306;6.934;2022-07-30T04:46:17;6.30;;;4.57;;
22963;SDS011;11648;49.306;6.934;2022-07-30T04:48:44;5.50;;;4.10;;
22963;SDS011;11648;49.306;6.934;2022-07-30T04:51:21;5.83;;;4.20;;
22963;SDS011;11648;49.306;6.934;2022-07-30T04:53:51;5.50;;;4.00;;
22963;SDS011;11648;49.306;6.934;2022-07-30T04:56:20;5.53;;;4.03;;
22963;SDS011;11648;49.306;6.934;2022-07-30T04:58:48;7.17;;;4.27;;
22963;SDS011;11648;49.306;6.934;2022-07-30T05:01:17;4.90;;;4.00;;
22963;SDS011;11648;49.306;6.934;2022-07-30T05:04:01;5.60;;;3.90;;
22963;SDS011;11648;49.306;6.934;2022-07-30T05:06:29;7.20;;;4.20;;
22963;SDS011;11648;49.306;6.934;2022-07-30T05:08:58;4.50;;;3.60;;
22963;SDS011;11648;49.306;6.934;2022-07-30T05:11:25;5.57;;;4.10;;
22963;SDS011;11648;49.306;6.934;2022-07-30T05:13:52;7.73;;;4.40;;
22963;SDS011;11648;49.306;6.934;2022-07-30T05:16:21;4.33;;;3.50;;
22963;SDS011;11648;49.306;6.934;2022-07-30T05:18:48;5.50;;;4.30;;
22963;SDS011;11648;49.306;6.934;2022-07-30T05:21:15;7.43;;;4.40;;
22963;SDS011;11648;49.306;6.934;2022-07-30T05:23:44;4.07;;;3.63;;
22963;SDS011;11648;49.306;6.934;2022-07-30T05:26:38;5.20;;;3.83;;
22963;SDS011;11648;49.306;6.934;2022-07-30T05:29:07;5.53;;;3.60;;
22963;SDS011;11648;49.306;6.934;2022-07-30T05:31:49;6.13;;;4.30;;
22963;SDS011;11648;49.306;6.934;2022-07-30T05:34:16;4.23;;;3.23;;
22963;SDS011;11648;49.306;6.934;2022-07-30T05:36:44;6.23;;;3.80;;
22963;SDS011;11648;49.306;6.934;2022-07-30T05:39:13;5.03;;;3.33;;
22963;SDS011;11648;49.306;6.934;2022-07-30T05:41:42;6.40;;;3.53;;
22963;SDS011;11648;49.306;6.934;2022-07-30T05:44:17;5.80;;;4.07;;
22963;SDS011;11648;49.306;6.934;2022-07-30T05:46:49;5.97;;;4.10;;
22963;SDS011;11648;49.306;6.934;2022-07-30T05:49:16;4.03;;;3.63;;
22963;SDS011;11648;49.306;6.934;2022-07-30T05:51:43;4.20;;;3.27;;
22963;SDS011;11648;49.306;6.934;2022-07-30T05:54:10;5.43;;;3.70;;
22963;SDS011;11648;49.306;6.934;2022-07-30T05:56:58;5.03;;;3.40;;
22963;SDS011;11648;49.306;6.934;2022-07-30T05:59:34;4.17;;;3.20;;
22963;SDS011;11648;49.306;6.934;2022-07-30T06:02:06;6.30;;;3.43;;
22963;SDS011;11648;49.306;6.934;2022-07-30T06:04:50;5.53;;;3.87;;
22963;SDS011;11648;49.306;6.934;2022-07-30T06:07:17;4.87;;;3.93;;
22963;SDS011;11648;49.306;6.934;2022-07-30T06:09:43;4.30;;;3.20;;
22963;SDS011;11648;49.306;6.934;2022-07-30T06:12:11;5.80;;;3.60;;
22963;SDS011;11648;49.306;6.934;2022-07-30T06:14:39;5.43;;;3.83;;
22963;SDS011;11648;49.306;6.934;2022-07-30T06:17:09;6.13;;;3.60;;
22963;SDS011;11648;49.306;6.934;2022-07-30T06:19:58;5.73;;;4.07;;
22963;SDS011;11648;49.306;6.934;2022-07-30T06:22:28;8.13;;;4.37;;
22963;SDS011;11648;49.306;6.934;2022-07-30T06:24:56;7.53;;;4.20;;
22963;SDS011;11648;49.306;6.934;2022-07-30T06:27:25;9.07;;;5.20;;
22963;SDS011;11648;49.306;6.934;2022-07-30T06:29:59;10.70;;;6.47;;
22963;SDS011;11648;49.306;6.934;2022-07-30T06:32:26;11.53;;;6.03;;
22963;SDS011;11648;49.306;6.934;2022-07-30T06:34:52;9.13;;;5.47;;
22963;SDS011;11648;49.306;6.934;2022-07-30T06:37:29;14.63;;;8.60;;
22963;SDS011;11648;49.306;6.934;2022-07-30T06:40:16;19.83;;;10.47;;
22963;SDS011;11648;49.306;6.934;2022-07-30T06:43:18;20.97;;;10.63;;
22963;SDS011;11648;49.306;6.934;2022-07-30T06:45:59;17.30;;;9.90;;
22963;SDS011;11648;49.306;6.934;2022-07-30T06:48:31;18.67;;;9.90;;
22963;SDS011;11648;49.306;6.934;2022-07-30T06:51:00;15.43;;;8.13;;
22963;SDS011;11648;49.306;6.934;2022-07-30T06:53:27;15.47;;;8.40;;
22963;SDS011;11648;49.306;6.934;2022-07-30T06:56:12;10.87;;;6.20;;
22963;SDS011;11648;49.306;6.934;2022-07-30T06:59:00;16.27;;;6.73;;
22963;SDS011;11648;49.306;6.934;2022-07-30T07:01:45;13.13;;;6.80;;
22963;SDS011;11648;49.306;6.934;2022-07-30T07:04:13;12.23;;;6.07;;
22963;SDS011;11648;49.306;6.934;2022-07-30T07:06:39;12.10;;;6.63;;
22963;SDS011;11648;49.306;6.934;2022-07-30T07:09:07;8.47;;;5.13;;
22963;SDS011;11648;49.306;6.934;2022-07-30T07:11:42;11.07;;;5.57;;
22963;SDS011;11648;49.306;6.934;2022-07-30T07:14:11;9.40;;;5.50;;
22963;SDS011;11648;49.306;6.934;2022-07-30T07:16:38;10.20;;;5.55;;
22963;SDS011;11648;49.306;6.934;2022-07-30T07:19:23;9.90;;;4.43;;
22963;SDS011;11648;49.306;6.934;2022-07-30T07:22:10;6.82;;;4.35;;
22963;SDS011;11648;49.306;6.934;2022-07-30T07:24:37;7.65;;;4.53;;
22963;SDS011;11648;49.306;6.934;2022-07-30T07:27:06;8.05;;;4.45;;
22963;SDS011;11648;49.306;6.934;2022-07-30T07:29:42;6.88;;;4.55;;
22963;SDS011;11648;49.306;6.934;2022-07-30T07:32:30;8.48;;;4.50;;
22963;SDS011;11648;49.306;6.934;2022-07-30T07:34:57;8.43;;;3.90;;
22963;SDS011;11648;49.306;6.934;2022-07-30T07:37:25;9.32;;;4.10;;
22963;SDS011;11648;49.306;6.934;2022-07-30T07:39:53;7.60;;;3.63;;
22963;SDS011;11648;49.306;6.934;2022-07-30T07:42:20;7.80;;;4.05;;
22963;SDS011;11648;49.306;6.934;2022-07-30T07:44:48;6.88;;;3.78;;
22963;SDS011;11648;49.306;6.934;2022-07-30T07:47:15;6.22;;;3.38;;
22963;SDS011;11648;49.306;6.934;2022-07-30T07:49:49;7.15;;;3.40;;
22963;SDS011;11648;49.306;6.934;2022-07-30T07:52:20;5.60;;;3.90;;
22963;SDS011;11648;49.306;6.934;2022-07-30T07:54:46;7.50;;;3.25;;
22963;SDS011;11648;49.306;6.934;2022-07-30T07:57:13;6.35;;;3.20;;
22963;SDS011;11648;49.306;6.934;2022-07-30T07:59:41;6.97;;;3.10;;
22963;SDS011;11648;49.306;6.934;2022-07-30T08:02:13;4.13;;;2.78;;
22963;SDS011;11648;49.306;6.934;2022-07-30T08:04:43;7.10;;;3.10;;
22963;SDS011;11648;49.306;6.934;2022-07-30T08:07:10;5.82;;;3.30;;
22963;SDS011;11648;49.306;6.934;2022-07-30T08:09:38;6.57;;;2.88;;
22963;SDS011;11648;49.306;6.934;2022-07-30T08:12:18;7.00;;;2.90;;
22963;SDS011;11648;49.306;6.934;2022-07-30T08:15:03;5.10;;;2.67;;
22963;SDS011;11648;49.306;6.934;2022-07-30T08:17:38;5.43;;;2.63;;
22963;SDS011;11648;49.306;6.934;2022-07-30T08:20:12;4.00;;;2.50;;
22963;SDS011;11648;49.306;6.934;2022-07-30T08:22:40;6.07;;;2.53;;
22963;SDS011;11648;49.306;6.934;2022-07-30T08:25:07;4.35;;;2.15;;
22963;SDS011;11648;49.306;6.934;2022-07-30T08:27:34;4.03;;;2.58;;
22963;SDS011;11648;49.306;6.934;2022-07-30T08:30:02;6.55;;;2.45;;
22963;SDS011;11648;49.306;6.934;2022-07-30T08:32:30;6.32;;;2.85;;
22963;SDS011;11648;49.306;6.934;2022-07-30T08:34:58;5.90;;;2.65;;
22963;SDS011;11648;49.306;6.934;2022-07-30T08:37:28;4.10;;;2.50;;
22963;SDS011;11648;49.306;6.934;2022-07-30T08:39:55;4.60;;;2.45;;
22963;SDS011;11648;49.306;6.934;2022-07-30T08:42:21;4.85;;;2.30;;
22963;SDS011;11648;49.306;6.934;2022-07-30T08:44:48;6.47;;;2.35;;
22963;SDS011;11648;49.306;6.934;2022-07-30T08:47:18;6.38;;;2.70;;
22963;SDS011;11648;49.306;6.934;2022-07-30T08:50:07;5.18;;;2.33;;
22963;SDS011;11648;49.306;6.934;2022-07-30T08:52:43;3.75;;;2.10;;
22963;SDS011;11648;49.306;6.934;2022-07-30T08:55:10;3.95;;;2.20;;
22963;SDS011;11648;49.306;6.934;2022-07-30T08:57:38;5.07;;;2.05;;
22963;SDS011;11648;49.306;6.934;2022-07-30T09:00:05;3.78;;;2.00;;
22963;SDS011;11648;49.306;6.934;2022-07-30T09:02:33;4.05;;;2.13;;
22963;SDS011;11648;49.306;6.934;2022-07-30T09:05:04;4.80;;;2.05;;
22963;SDS011;11648;49.306;6.934;2022-07-30T09:07:32;3.72;;;2.13;;
22963;SDS011;11648;49.306;6.934;2022-07-30T09:10:01;7.00;;;2.10;;
22963;SDS011;11648;49.306;6.934;2022-07-30T09:15:03;3.60;;;1.88;;
22963;SDS011;11648;49.306;6.934;2022-07-30T09:17:47;6.10;;;2.10;;
22963;SDS011;11648;49.306;6.934;2022-07-30T09:20:16;5.65;;;1.92;;
22963;SDS011;11648;49.306;6.934;2022-07-30T09:22:50;4.30;;;2.03;;
22963;SDS011;11648;49.306;6.934;2022-07-30T09:25:45;3.15;;;1.80;;
22963;SDS011;11648;49.306;6.934;2022-07-30T09:28:32;3.75;;;1.70;;
22963;SDS011;11648;49.306;6.934;2022-07-30T09:31:11;4.30;;;1.70;;
22963;SDS011;11648;49.306;6.934;2022-07-30T09:34:14;5.13;;;1.73;;
22963;SDS011;11648;49.306;6.934;2022-07-30T09:37:03;3.05;;;1.50;;
22963;SDS011;11648;49.306;6.934;2022-07-30T09:39:47;3.03;;;1.45;;
22963;SDS011;11648;49.306;6.934;2022-07-30T09:42:43;4.03;;;1.60;;
22963;SDS011;11648;49.306;6.934;2022-07-30T09:45:14;2.92;;;1.50;;
22963;SDS011;11648;49.306;6.934;2022-07-30T09:47:43;2.97;;;1.50;;
22963;SDS011;11648;49.306;6.934;2022-07-30T09:50:14;4.22;;;2.00;;
22963;SDS011;11648;49.306;6.934;2022-07-30T09:53:04;5.03;;;1.90;;
22963;SDS011;11648;49.306;6.934;2022-07-30T09:55:36;4.38;;;1.70;;
22963;SDS011;11648;49.306;6.934;2022-07-30T09:58:08;3.80;;;1.55;;
22963;SDS011;11648;49.306;6.934;2022-07-30T10:00:42;3.83;;;1.85;;
22963;SDS011;11648;49.306;6.934;2022-07-30T10:03:48;3.70;;;1.67;;
22963;SDS011;11648;49.306;6.934;2022-07-30T10:06:34;5.28;;;1.45;;
22963;SDS011;11648;49.306;6.934;2022-07-30T10:09:24;4.55;;;1.40;;
22963;SDS011;11648;49.306;6.934;2022-07-30T10:12:01;3.47;;;1.65;;
22963;SDS011;11648;49.306;6.934;2022-07-30T10:14:35;3.72;;;1.52;;
22963;SDS011;11648;49.306;6.934;2022-07-30T10:17:10;7.07;;;1.48;;
22963;SDS011;11648;49.306;6.934;2022-07-30T10:19:39;2.72;;;1.45;;
22963;SDS011;11648;49.306;6.934;2022-07-30T10:22:26;5.55;;;1.80;;
22963;SDS011;11648;49.306;6.934;2022-07-30T10:25:16;5.72;;;2.00;;
22963;SDS011;11648;49.306;6.934;2022-07-30T10:28:22;2.80;;;1.30;;
22963;SDS011;11648;49.306;6.934;2022-07-30T10:30:53;6.30;;;1.40;;
22963;SDS011;11648;49.306;6.934;2022-07-30T10:33:28;3.97;;;1.33;;
22963;SDS011;11648;49.306;6.934;2022-07-30T10:36:03;4.43;;;1.27;;
22963;SDS011;11648;49.306;6.934;2022-07-30T10:38:30;5.15;;;1.40;;
22963;SDS011;11648;49.306;6.934;2022-07-30T10:41:06;4.85;;;1.52;;
22963;SDS011;11648;49.306;6.934;2022-07-30T10:46:59;4.05;;;1.30;;
22963;SDS011;11648;49.306;6.934;2022-07-30T10:49:34;2.95;;;1.10;;
22963;SDS011;11648;49.306;6.934;2022-07-30T10:52:08;3.22;;;1.13;;
22963;SDS011;11648;49.306;6.934;2022-07-30T10:54:43;3.75;;;1.52;;
22963;SDS011;11648;49.306;6.934;2022-07-30T11:02:26;3.03;;;2.42;;
22963;SDS011;11648;49.306;6.934;2022-07-30T11:10:57;5.43;;;1.77;;
22963;SDS011;11648;49.306;6.934;2022-07-30T11:19:13;3.58;;;1.45;;
22963;SDS011;11648;49.306;6.934;2022-07-30T11:22:26;4.63;;;1.40;;
22963;SDS011;11648;49.306;6.934;2022-07-30T11:24:58;2.67;;;1.05;;
22963;SDS011;11648;49.306;6.934;2022-07-30T11:27:35;3.70;;;1.17;;
22963;SDS011;11648;49.306;6.934;2022-07-30T11:32:44;3.47;;;1.45;;
22963;SDS011;11648;49.306;6.934;2022-07-30T11:35:32;3.38;;;1.20;;
22963;SDS011;11648;49.306;6.934;2022-07-30T11:43:16;5.07;;;1.35;;
22963;SDS011;11648;49.306;6.934;2022-07-30T11:46:09;3.78;;;1.33;;
22963;SDS011;11648;49.306;6.934;2022-07-30T11:48:38;2.60;;;1.60;;
22963;SDS011;11648;49.306;6.934;2022-07-30T11:51:08;4.93;;;1.70;;
22963;SDS011;11648;49.306;6.934;2022-07-30T11:53:35;2.13;;;1.30;;
22963;SDS011;11648;49.306;6.934;2022-07-30T11:56:02;1.35;;;1.00;;
22963;SDS011;11648;49.306;6.934;2022-07-30T11:58:30;2.05;;;0.98;;
22963;SDS011;11648;49.306;6.934;2022-07-30T12:01:02;2.03;;;1.10;;
22963;SDS011;11648;49.306;6.934;2022-07-30T12:03:37;3.97;;;1.20;;
22963;SDS011;11648;49.306;6.934;2022-07-30T12:06:07;2.78;;;0.98;;
22963;SDS011;11648;49.306;6.934;2022-07-30T12:08:39;3.10;;;1.10;;
22963;SDS011;11648;49.306;6.934;2022-07-30T12:11:07;2.42;;;1.50;;
22963;SDS011;11648;49.306;6.934;2022-07-30T12:13:35;2.92;;;1.02;;
22963;SDS011;11648;49.306;6.934;2022-07-30T12:16:11;3.78;;;0.90;;
22963;SDS011;11648;49.306;6.934;2022-07-30T12:18:41;3.60;;;1.48;;
22963;SDS011;11648;49.306;6.934;2022-07-30T12:21:10;1.98;;;0.95;;
22963;SDS011;11648;49.306;6.934;2022-07-30T12:23:38;2.80;;;1.00;;
22963;SDS011;11648;49.306;6.934;2022-07-30T12:26:07;2.17;;;1.00;;
22963;SDS011;11648;49.306;6.934;2022-07-30T12:28:34;1.67;;;0.88;;
22963;SDS011;11648;49.306;6.934;2022-07-30T12:31:01;2.08;;;0.82;;
22963;SDS011;11648;49.306;6.934;2022-07-30T12:33:29;3.03;;;1.00;;
22963;SDS011;11648;49.306;6.934;2022-07-30T12:35:58;2.72;;;1.90;;
22963;SDS011;11648;49.306;6.934;2022-07-30T12:38:27;4.05;;;1.10;;
22963;SDS011;11648;49.306;6.934;2022-07-30T12:40:55;3.38;;;1.17;;
22963;SDS011;11648;49.306;6.934;2022-07-30T12:46:26;4.25;;;0.90;;
22963;SDS011;11648;49.306;6.934;2022-07-30T12:51:31;2.40;;;1.00;;
22963;SDS011;11648;49.306;6.934;2022-07-30T12:54:13;2.22;;;1.00;;
22963;SDS011;11648;49.306;6.934;2022-07-30T12:56:54;5.68;;;1.20;;
22963;SDS011;11648;49.306;6.934;2022-07-30T12:59:23;1.83;;;0.88;;
22963;SDS011;11648;49.306;6.934;2022-07-30T13:01:51;1.88;;;0.90;;
22963;SDS011;11648;49.306;6.934;2022-07-30T13:04:19;3.10;;;1.13;;
22963;SDS011;11648;49.306;6.934;2022-07-30T13:07:05;2.55;;;0.88;;
22963;SDS011;11648;49.306;6.934;2022-07-30T13:09:32;3.33;;;0.70;;
22963;SDS011;11648;49.306;6.934;2022-07-30T13:11:59;2.40;;;0.80;;
22963;SDS011;11648;49.306;6.934;2022-07-30T13:14:26;3.78;;;0.85;;
22963;SDS011;11648;49.306;6.934;2022-07-30T13:16:53;1.20;;;0.60;;
22963;SDS011;11648;49.306;6.934;2022-07-30T13:19:24;2.03;;;0.85;;
22963;SDS011;11648;49.306;6.934;2022-07-30T13:21:51;2.00;;;0.80;;
22963;SDS011;11648;49.306;6.934;2022-07-30T13:24:18;1.98;;;1.17;;
22963;SDS011;11648;49.306;6.934;2022-07-30T13:26:45;1.90;;;0.88;;
22963;SDS011;11648;49.306;6.934;2022-07-30T13:29:15;2.00;;;0.98;;
22963;SDS011;11648;49.306;6.934;2022-07-30T13:31:42;2.38;;;0.90;;
22963;SDS011;11648;49.306;6.934;2022-07-30T13:34:09;2.20;;;0.80;;
22963;SDS011;11648;49.306;6.934;2022-07-30T13:36:37;1.90;;;0.70;;
22963;SDS011;11648;49.306;6.934;2022-07-30T13:39:03;1.45;;;0.73;;
22963;SDS011;11648;49.306;6.934;2022-07-30T13:41:30;1.50;;;0.80;;
22963;SDS011;11648;49.306;6.934;2022-07-30T13:43:58;0.88;;;0.63;;
22963;SDS011;11648;49.306;6.934;2022-07-30T13:46:25;2.35;;;0.80;;
22963;SDS011;11648;49.306;6.934;2022-07-30T13:48:51;3.13;;;0.95;;
22963;SDS011;11648;49.306;6.934;2022-07-30T13:51:18;1.60;;;0.80;;
22963;SDS011;11648;49.306;6.934;2022-07-30T13:53:44;1.60;;;0.80;;
22963;SDS011;11648;49.306;6.934;2022-07-30T13:56:11;2.42;;;0.80;;
22963;SDS011;11648;49.306;6.934;2022-07-30T13:58:38;2.38;;;0.70;;
22963;SDS011;11648;49.306;6.934;2022-07-30T14:01:05;1.00;;;0.55;;
22963;SDS011;11648;49.306;6.934;2022-07-30T14:03:33;1.67;;;0.80;;
22963;SDS011;11648;49.306;6.934;2022-07-30T14:06:00;2.83;;;0.80;;
22963;SDS011;11648;49.306;6.934;2022-07-30T14:08:36;1.40;;;0.70;;
22963;SDS011;11648;49.306;6.934;2022-07-30T14:11:04;2.97;;;0.70;;
22963;SDS011;11648;49.306;6.934;2022-07-30T14:13:30;1.23;;;0.70;;
22963;SDS011;11648;49.306;6.934;2022-07-30T14:15:57;2.08;;;0.70;;
22963;SDS011;11648;49.306;6.934;2022-07-30T14:18:24;2.30;;;0.70;;
22963;SDS011;11648;49.306;6.934;2022-07-30T14:20:50;1.48;;;0.73;;
22963;SDS011;11648;49.306;6.934;2022-07-30T14:23:18;3.95;;;0.60;;
22963;SDS011;11648;49.306;6.934;2022-07-30T14:25:45;2.47;;;0.85;;
22963;SDS011;11648;49.306;6.934;2022-07-30T14:28:12;4.13;;;0.70;;
22963;SDS011;11648;49.306;6.934;2022-07-30T14:30:40;2.97;;;0.60;;
22963;SDS011;11648;49.306;6.934;2022-07-30T14:33:07;1.45;;;0.70;;
22963;SDS011;11648;49.306;6.934;2022-07-30T14:35:34;1.33;;;0.70;;
22963;SDS011;11648;49.306;6.934;2022-07-30T14:38:00;2.15;;;0.60;;
22963;SDS011;11648;49.306;6.934;2022-07-30T14:40:28;1.42;;;0.60;;
22963;SDS011;11648;49.306;6.934;2022-07-30T14:42:55;2.28;;;0.80;;
22963;SDS011;11648;49.306;6.934;2022-07-30T14:45:23;2.35;;;0.80;;
22963;SDS011;11648;49.306;6.934;2022-07-30T14:47:50;1.02;;;0.57;;
22963;SDS011;11648;49.306;6.934;2022-07-30T14:50:17;2.10;;;0.80;;
22963;SDS011;11648;49.306;6.934;2022-07-30T14:52:44;1.50;;;0.70;;
22963;SDS011;11648;49.306;6.934;2022-07-30T14:55:12;1.40;;;0.70;;
22963;SDS011;11648;49.306;6.934;2022-07-30T14:57:39;1.83;;;0.70;;
22963;SDS011;11648;49.306;6.934;2022-07-30T15:00:08;2.60;;;0.80;;
22963;SDS011;11648;49.306;6.934;2022-07-30T15:02:37;1.40;;;0.60;;
22963;SDS011;11648;49.306;6.934;2022-07-30T15:05:04;3.55;;;0.60;;
22963;SDS011;11648;49.306;6.934;2022-07-30T15:07:31;1.90;;;0.60;;
22963;SDS011;11648;49.306;6.934;2022-07-30T15:10:00;2.40;;;0.68;;
22963;SDS011;11648;49.306;6.934;2022-07-30T15:12:27;2.25;;;0.90;;
22963;SDS011;11648;49.306;6.934;2022-07-30T15:14:54;1.58;;;0.80;;
22963;SDS011;11648;49.306;6.934;2022-07-30T15:17:21;2.13;;;0.90;;
22963;SDS011;11648;49.306;6.934;2022-07-30T15:19:47;2.03;;;0.70;;
22963;SDS011;11648;49.306;6.934;2022-07-30T15:22:19;1.30;;;0.50;;
22963;SDS011;11648;49.306;6.934;2022-07-30T15:24:46;1.48;;;0.70;;
22963;SDS011;11648;49.306;6.934;2022-07-30T15:27:13;1.25;;;0.73;;
22963;SDS011;11648;49.306;6.934;2022-07-30T15:29:40;0.88;;;0.52;;
22963;SDS011;11648;49.306;6.934;2022-07-30T15:32:07;1.92;;;0.60;;
22963;SDS011;11648;49.306;6.934;2022-07-30T15:34:33;1.67;;;0.70;;
22963;SDS011;11648;49.306;6.934;2022-07-30T15:37:00;1.50;;;0.60;;
22963;SDS011;11648;49.306;6.934;2022-07-30T15:39:28;1.17;;;0.50;;
22963;SDS011;11648;49.306;6.934;2022-07-30T15:41:57;1.20;;;0.50;;
22963;SDS011;11648;49.306;6.934;2022-07-30T15:44:24;1.05;;;0.50;;
22963;SDS011;11648;49.306;6.934;2022-07-30T15:46:51;2.50;;;0.70;;
22963;SDS011;11648;49.306;6.934;2022-07-30T15:49:17;1.83;;;0.70;;
22963;SDS011;11648;49.306;6.934;2022-07-30T15:51:44;1.45;;;0.65;;
22963;SDS011;11648;49.306;6.934;2022-07-30T15:54:14;1.30;;;0.60;;